Capitol Logistics 940


EHAM
Schiphol International Airport
Amsterdam, NL
EGNX
East Midlands Airport
Derby, GB

Activity Log

Date Flight Route Aircraft Duration
No Flights Yet

Route Details

Aircraft Information
Primary: Boeing 737-800BCF
Backup: Not Available
Route Data
Distance: 226nm
Sched. Duration: 0h 45m
Avg. Duration: 0h 00m (-45m)
Times Flown: 0
Recm'd Route: Not Available
Planned Altitude: 24,000ft
Origin Wx: EHAM 060655Z 24015KT 210V270 9999 FEW035 SCT040 12/04 Q0996 NOSIG
Dest. Wx: EGNX 060650Z 23021KT 9999 -RA BKN023 09/03 Q0993
Notes:

Financial History
Total Freight: 0lbs
Average Load: 0lbs/flt
Fuel Used: 0lbs
Avg. Fuel Used: 0lbs/flt
Fuel Expense: $0
Avg. Fuel Expense: $0
Avg. Fuel Cost: $0/lbs
Total Gross Income: $0
Pilot Pay: $0
Total Expenses: $0
Total Revenue: $0
Average Revenue: $0